Time;durP1;ratioP1;P1;durP2;ratioP2;P2;SDS_P1;SDS_P2;PMS_P1;PMS_P2;Temp;Humidity;BMP_temperature;BMP_pressure;BME280_temperature;BME280_humidity;BME280_pressure;Samples;Min_cycle;Max_cycle;Signal;HPM_P1;HPM_P2
2023/06/24 00:00:37;;;;;;;47.85;19.20;;;;;;;30.73;70.55;100625.53;5053960;28;65740;-47
2023/06/24 00:03:08;;;;;;;32.75;18.60;;;;;;;30.91;70.97;100649.09;5059585;28;70230;-47
2023/06/24 00:05:39;;;;;;;33.90;16.93;;;;;;;30.86;70.82;100643.53;5041595;28;66474;-48
2023/06/24 00:08:14;;;;;;;27.83;15.40;;;;;;;30.80;70.93;100628.19;5055689;28;70557;-48
2023/06/24 00:10:49;;;;;;;30.58;14.02;;;;;;;30.55;70.78;100585.72;5039597;28;65711;-46
2023/06/24 00:13:20;;;;;;;30.73;13.95;;;;;;;31.06;70.89;100659.53;5056591;28;70226;-49
2023/06/24 00:15:52;;;;;;;22.35;12.15;;;;;;;31.10;71.06;100656.16;5054085;28;66279;-45
2023/06/24 00:18:24;;;;;;;20.00;11.57;;;;;;;31.10;71.06;100656.16;5054801;28;70107;-48
2023/06/24 00:20:56;;;;;;;25.00;11.50;;;;;;;30.80;71.09;100598.41;5053321;28;65761;-48
2023/06/24 00:23:30;;;;;;;22.05;10.73;;;;;;;31.21;71.08;100664.59;5057649;28;70383;-45
2023/06/24 00:26:01;;;;;;;19.50;11.13;;;;;;;31.21;70.84;100653.75;5054822;28;65523;-45
2023/06/24 00:28:33;;;;;;;14.40;10.15;;;;;;;31.14;70.87;100643.78;5037960;28;68831;-46
2023/06/24 00:31:04;;;;;;;16.33;9.52;;;;;;;31.25;70.82;100657.63;5038650;28;66361;-47
2023/06/24 00:33:35;;;;;;;18.33;9.73;;;;;;;31.28;70.27;100670.72;5045804;28;70680;-48
2023/06/24 00:36:11;;;;;;;21.85;8.43;;;;;;;31.21;71.02;100664.59;5041037;28;65757;-44
2023/06/24 00:38:42;;;;;;;26.20;9.20;;;;;;;31.33;72.26;100668.16;5055403;28;69968;-47
2023/06/24 00:41:13;;;;;;;44.08;10.77;;;;;;;31.23;72.44;100657.03;5056323;28;66432;-46
2023/06/24 00:43:46;;;;;;;30.90;11.65;;;;;;;30.68;73.08;100563.91;5056266;28;70225;-45
2023/06/24 00:46:19;;;;;;;34.90;11.50;;;;;;;31.37;73.85;100674.81;5060002;28;65955;-44
2023/06/24 00:48:50;;;;;;;35.60;10.68;;;;;;;31.41;73.37;100670.59;5053761;28;70305;-46
2023/06/24 00:51:26;;;;;;;16.35;9.10;;;;;;;31.38;70.41;100660.22;5052071;28;66172;-47
2023/06/24 00:53:58;;;;;;;13.80;8.35;;;;;;;31.52;69.52;100680.66;5035456;28;70483;-45
2023/06/24 00:56:34;;;;;;;8.60;7.32;;;;;;;31.55;69.04;100685.63;5034798;28;66124;-47
2023/06/24 00:59:08;;;;;;;13.55;8.38;;;;;;;31.42;68.50;100661.41;5055812;28;68542;-46
2023/06/24 01:01:40;;;;;;;9.02;7.57;;;;;;;31.58;68.52;100693.28;5024965;28;66078;-39
2023/06/24 01:04:11;;;;;;;31.48;9.85;;;;;;;31.58;71.86;100698.72;5050181;28;70353;-42
2023/06/24 01:06:45;;;;;;;19.87;10.30;;;;;;;31.58;71.50;100693.28;5023986;28;65475;-43
2023/06/24 01:09:16;;;;;;;22.30;10.75;;;;;;;31.33;72.15;100651.91;5051634;28;70566;-47
2023/06/24 01:11:48;;;;;;;20.63;10.35;;;;;;;31.64;71.92;100704.28;5057487;28;66773;-48
2023/06/24 01:14:20;;;;;;;19.17;10.85;;;;;;;31.65;72.22;100705.91;5055213;28;70372;-47
2023/06/24 01:17:06;;;;;;;26.63;10.57;;;;;;;31.14;72.33;100624.00;5052640;28;66707;-47
2023/06/24 01:20:15;;;;;;;24.13;10.18;;;;;;;31.65;72.14;100701.34;5038690;28;69202;-48
2023/06/24 01:23:14;;;;;;;12.85;9.23;;;;;;;31.66;71.83;100699.47;5060836;28;66003;-47
2023/06/24 01:25:59;;;;;;;19.80;9.68;;;;;;;31.76;72.35;100702.41;5056361;28;70503;-45
2023/06/24 01:29:07;;;;;;;15.65;9.02;;;;;;;31.73;72.79;100711.88;5057232;28;66072;-44
2023/06/24 01:31:52;;;;;;;22.35;8.48;;;;;;;31.70;73.04;100703.34;5061526;28;70327;-43
2023/06/24 01:34:42;;;;;;;24.27;8.23;;;;;;;31.68;72.96;100708.16;5056491;28;67125;-46
2023/06/24 01:37:20;;;;;;;17.27;7.13;;;;;;;31.81;73.06;100729.69;5055889;28;70731;-45
2023/06/24 01:40:10;;;;;;;22.63;7.72;;;;;;;31.79;73.19;100724.50;5053009;28;66127;-45
2023/06/24 01:42:45;;;;;;;21.73;7.00;;;;;;;31.87;72.52;100728.75;5052860;28;71365;-45
2023/06/24 01:45:23;;;;;;;14.45;6.72;;;;;;;31.33;71.86;100619.38;5056101;28;65659;-51
2023/06/24 01:48:09;;;;;;;22.50;7.70;;;;;;;31.37;71.98;100626.00;5034544;28;70405;-45
2023/06/24 01:50:55;;;;;;;15.98;7.35;;;;;;;31.38;71.59;100617.66;5042041;28;66397;-44
2023/06/24 01:53:28;;;;;;;12.48;7.18;;;;;;;31.97;71.34;100709.25;5055216;28;68748;-47
2023/06/24 01:56:02;;;;;;;11.82;6.85;;;;;;;31.98;71.33;100705.47;5057646;28;67137;-43
2023/06/24 01:58:35;;;;;;;12.73;6.18;;;;;;;31.94;70.90;100705.13;5020916;28;70423;-47
2023/06/24 02:01:07;;;;;;;19.40;6.25;;;;;;;31.87;70.79;100679.13;5057350;28;65723;-44
2023/06/24 02:03:41;;;;;;;9.82;5.63;;;;;;;32.11;69.63;100702.56;5052140;28;70340;-46
2023/06/24 02:06:14;;;;;;;5.53;4.55;;;;;;;32.15;69.00;100700.19;5033905;28;65846;-46
2023/06/24 02:08:48;;;;;;;5.40;4.35;;;;;;;31.84;68.69;100642.44;5051169;28;70180;-46
2023/06/24 02:11:21;;;;;;;5.03;4.53;;;;;;;32.22;68.63;100703.66;5052747;28;66558;-49
2023/06/24 02:13:55;;;;;;;4.88;4.40;;;;;;;31.67;68.38;100614.34;5061197;28;69740;-48
2023/06/24 02:16:27;;;;;;;6.53;4.43;;;;;;;32.16;68.18;100688.31;5058443;28;66389;-46
2023/06/24 02:19:01;;;;;;;5.35;4.45;;;;;;;32.32;68.18;100709.34;5046875;28;70708;-46
2023/06/24 02:21:36;;;;;;;4.65;4.20;;;;;;;32.07;67.84;100654.41;5054473;28;66663;-47
2023/06/24 02:24:08;;;;;;;4.70;3.88;;;;;;;32.38;67.46;100702.97;5036036;28;70011;-47
2023/06/24 02:26:40;;;;;;;;;;;;;;;32.10;68.58;100700.91;5057992;28;66332;-46
2023/06/24 02:29:12;;;;;;;5.15;4.75;;;;;;;32.38;67.42;100707.56;5053323;28;70109;-47
2023/06/24 02:31:44;;;;;;;4.75;4.28;;;;;;;32.41;67.27;100701.66;5029332;28;66198;-48
2023/06/24 02:34:16;;;;;;;5.28;4.78;;;;;;;32.34;66.92;100690.91;5060635;28;69410;-46
2023/06/24 02:36:46;;;;;;;;;;;;;;;32.21;67.81;100707.44;5061353;28;66085;-43
2023/06/24 02:39:17;;;;;;;5.35;4.95;;;;;;;32.47;66.82;100707.00;5058028;28;70278;-48
2023/06/24 02:41:49;;;;;;;10.93;5.38;;;;;;;32.47;66.66;100704.28;5063909;28;66417;-47
2023/06/24 02:44:20;;;;;;;7.15;4.78;;;;;;;32.56;66.42;100712.09;5063287;28;70049;-47
2023/06/24 02:46:55;;;;;;;4.95;4.53;;;;;;;32.58;66.19;100696.38;5063190;28;66959;-46
2023/06/24 02:49:27;;;;;;;8.73;4.70;;;;;;;32.62;66.10;100692.13;5028473;28;70281;-45
2023/06/24 02:51:58;;;;;;;5.15;4.75;;;;;;;32.64;66.00;100685.41;5057822;28;66274;-45
2023/06/24 02:54:30;;;;;;;5.78;5.20;;;;;;;32.60;65.74;100669.84;5059029;28;70262;-45
2023/06/24 02:57:20;;;;;;;5.28;4.78;;;;;;;32.70;65.97;100678.19;5063222;28;66048;-44
2023/06/24 03:00:12;;;;;;;6.82;4.65;;;;;;;32.73;65.68;100677.72;5061368;28;70367;-46
2023/06/24 03:03:06;;;;;;;5.53;4.47;;;;;;;32.63;65.08;100655.78;5055500;28;65592;-45
2023/06/24 03:05:44;;;;;;;4.72;4.32;;;;;;;32.63;65.32;100658.50;5042241;28;70202;-44
2023/06/24 03:08:16;;;;;;;5.03;4.53;;;;;;;32.82;65.19;100680.88;5049407;28;66670;-45
2023/06/24 03:10:49;;;;;;;7.97;4.68;;;;;;;32.74;64.89;100667.69;5056867;28;69630;-45
2023/06/24 03:13:24;;;;;;;5.00;4.47;;;;;;;32.83;65.09;100683.38;5060217;28;66219;-46
2023/06/24 03:16:12;;;;;;;6.57;3.90;;;;;;;32.83;64.54;100680.66;5041341;28;69312;-47
2023/06/24 03:18:51;;;;;;;7.75;4.10;;;;;;;32.47;64.51;100609.25;5043780;28;66691;-47
2023/06/24 03:21:28;;;;;;;4.15;3.83;;;;;;;32.91;64.76;100683.00;5044996;28;70494;-46
2023/06/24 03:24:08;;;;;;;5.43;4.22;;;;;;;32.94;64.42;100677.09;5043918;28;66501;-46
2023/06/24 03:26:41;;;;;;;4.90;4.30;;;;;;;32.98;64.22;100663.03;5043280;28;69610;-44
2023/06/24 03:29:14;;;;;;;6.80;4.22;;;;;;;33.01;63.95;100662.56;5043278;28;65725;-44
2023/06/24 03:31:55;;;;;;;8.23;4.20;;;;;;;33.04;64.05;100657.50;5032312;28;69880;-47
2023/06/24 03:34:28;;;;;;;6.13;4.40;;;;;;;33.06;63.82;100663.50;5042110;28;66495;-47
2023/06/24 03:36:59;;;;;;;4.63;4.13;;;;;;;33.06;63.97;100662.69;5061215;28;70079;-47
2023/06/24 03:39:30;;;;;;;6.22;4.40;;;;;;;33.08;63.79;100652.41;5071180;27;66184;-48
2023/06/24 03:42:03;;;;;;;7.20;4.25;;;;;;;33.11;63.61;100651.91;5043695;28;70216;-47
2023/06/24 03:44:34;;;;;;;5.67;4.23;;;;;;;32.65;63.49;100574.88;5050255;28;66329;-46
2023/06/24 03:47:06;;;;;;;7.53;4.18;;;;;;;33.15;63.16;100642.19;5045126;28;69410;-46
2023/06/24 03:49:37;;;;;;;7.43;5.00;;;;;;;33.17;63.34;100645.50;5041821;28;65521;-46
2023/06/24 03:52:08;;;;;;;10.43;5.13;;;;;;;33.09;62.64;100632.31;5040893;28;70027;-46
2023/06/24 03:54:40;;;;;;;8.18;4.47;;;;;;;33.18;63.37;100640.91;5047777;28;66346;-46
2023/06/24 03:57:11;;;;;;;5.47;4.45;;;;;;;33.06;63.43;100621.91;5059392;28;69924;-43
2023/06/24 03:59:42;;;;;;;7.23;3.70;;;;;;;33.17;63.67;100634.63;5061730;28;66919;-45
2023/06/24 04:02:13;;;;;;;12.13;5.17;;;;;;;32.99;62.54;100627.47;5057672;28;69933;-44
2023/06/24 04:04:44;;;;;;;10.32;4.95;;;;;;;32.84;60.92;100636.13;5040328;28;65393;-44
2023/06/24 04:07:27;;;;;;;10.90;4.70;;;;;;;32.59;58.63;100630.13;5055387;28;70206;-48
2023/06/24 04:09:58;;;;;;;9.02;5.18;;;;;;;32.55;57.99;100631.69;5040471;28;66380;-45
2023/06/24 04:12:29;;;;;;;29.87;5.23;;;;;;;32.19;56.03;100592.84;5058047;28;69493;-44
2023/06/24 04:15:01;;;;;;;12.10;4.30;;;;;;;32.28;55.35;100626.72;5039520;28;65875;-45
2023/06/24 04:17:34;;;;;;;12.25;4.32;;;;;;;32.21;54.47;100626.00;5054203;28;70847;-47
2023/06/24 04:20:09;;;;;;;7.93;4.27;;;;;;;32.11;53.52;100621.16;5052360;28;66543;-46
2023/06/24 04:22:41;;;;;;;7.22;4.00;;;;;;;32.02;52.14;100626.09;5057176;28;70127;-45
2023/06/24 04:25:12;;;;;;;9.98;3.50;;;;;;;31.96;51.50;100624.34;5034434;28;66340;-44
2023/06/24 04:27:43;;;;;;;7.63;3.83;;;;;;;31.87;50.31;100625.69;5044446;28;69932;-43
2023/06/24 04:30:14;;;;;;;6.82;3.67;;;;;;;31.80;49.85;100608.72;5059503;28;65872;-46
2023/06/24 04:32:45;;;;;;;4.30;3.90;;;;;;;31.69;49.18;100607.63;5042537;28;69784;-46
2023/06/24 04:35:17;;;;;;;11.35;4.13;;;;;;;31.37;48.55;100561.81;5048429;28;66067;-44
2023/06/24 04:37:51;;;;;;;8.63;4.18;;;;;;;31.63;47.84;100600.41;5051544;28;69925;-44
2023/06/24 04:40:22;;;;;;;6.07;3.65;;;;;;;31.62;47.47;100601.47;5058465;28;65577;-46
2023/06/24 04:42:53;;;;;;;3.67;3.33;;;;;;;31.58;47.18;100584.00;5057694;28;70050;-44
2023/06/24 04:45:25;;;;;;;3.83;3.42;;;;;;;31.54;47.28;100578.25;5058491;28;66173;-45
2023/06/24 04:47:56;;;;;;;5.78;3.05;;;;;;;31.47;46.40;100576.69;5059049;28;69230;-47
2023/06/24 04:50:27;;;;;;;3.80;3.50;;;;;;;31.31;46.97;100540.19;5060819;28;67529;-45
2023/06/24 04:53:00;;;;;;;4.37;3.60;;;;;;;31.39;46.25;100569.69;5058021;28;69640;-46
2023/06/24 04:55:31;;;;;;;3.28;3.00;;;;;;;31.33;45.73;100554.34;5057909;28;66739;-45
2023/06/24 04:58:03;;;;;;;8.23;3.90;;;;;;;31.34;47.15;100545.13;5038958;28;69104;-46
2023/06/24 05:00:34;;;;;;;4.23;3.50;;;;;;;31.37;47.80;100547.41;5054497;28;66901;-43
2023/06/24 05:03:05;;;;;;;10.73;3.90;;;;;;;31.38;46.65;100546.38;5056288;28;69921;-46
2023/06/24 05:05:37;;;;;;;5.63;3.55;;;;;;;31.33;46.68;100528.06;5058656;28;66756;-44
2023/06/24 05:08:08;;;;;;;;;;;;;;;31.21;46.50;100529.09;5040044;28;70146;-44
2023/06/24 05:10:39;;;;;;;7.47;3.40;;;;;;;31.27;45.80;100484.81;5057283;28;66837;-45
2023/06/24 05:13:10;;;;;;;9.40;3.43;;;;;;;31.33;46.98;100495.53;5054877;28;69799;-41
2023/06/24 05:15:41;;;;;;;3.95;3.55;;;;;;;31.46;46.62;100510.81;5057053;28;66587;-46
2023/06/24 05:18:12;;;;;;;5.00;3.58;;;;;;;31.41;46.52;100491.69;5056388;28;69468;-45
2023/06/24 05:20:43;;;;;;;11.50;2.92;;;;;;;31.50;46.87;100494.88;5037142;28;66764;-48
2023/06/24 05:23:14;;;;;;;6.25;3.00;;;;;;;31.43;45.87;100495.00;5061651;28;70578;-46
2023/06/24 05:25:45;;;;;;;10.15;3.17;;;;;;;31.42;47.22;100471.66;5055638;28;66239;-46
2023/06/24 05:28:16;;;;;;;12.30;3.07;;;;;;;31.50;47.60;100474.03;5063576;28;71017;-42
2023/06/24 05:30:47;;;;;;;40.38;4.15;;;;;;;31.49;46.16;100477.81;5051971;28;66990;-46
2023/06/24 05:33:18;;;;;;;13.27;3.63;;;;;;;31.50;47.28;100474.03;5057635;28;70213;-44
2023/06/24 05:35:50;;;;;;;15.68;4.32;;;;;;;31.47;45.78;100465.53;5047252;28;66698;-47
2023/06/24 05:38:21;;;;;;;6.05;3.20;;;;;;;31.55;45.34;100468.72;5052883;28;70422;-45
2023/06/24 05:40:51;;;;;;;17.70;4.07;;;;;;;31.58;45.08;100460.13;5058193;28;65198;-44
2023/06/24 05:43:22;;;;;;;6.57;3.00;;;;;;;31.53;44.84;100457.28;5053646;28;71143;-44
2023/06/24 05:45:54;;;;;;;22.35;3.30;;;;;;;31.56;45.30;100456.81;5060050;28;66551;-46
2023/06/24 05:48:25;;;;;;;7.40;3.67;;;;;;;31.54;45.30;100448.13;5056089;28;69249;-44
2023/06/24 05:50:56;;;;;;;4.82;3.00;;;;;;;31.52;44.78;100444.81;5055369;28;66036;-42
2023/06/24 05:53:27;;;;;;;3.43;2.93;;;;;;;31.55;44.14;100448.94;5057636;28;69894;-42
2023/06/24 05:55:58;;;;;;;7.93;3.13;;;;;;;31.47;44.24;100427.59;5054863;28;66786;-45
2023/06/24 05:58:29;;;;;;;10.40;3.13;;;;;;;31.48;44.28;100407.53;5057496;28;70491;-44
2023/06/24 06:01:01;;;;;;;6.57;2.53;;;;;;;31.57;43.53;100423.25;5057164;28;66789;-43
2023/06/24 06:03:32;;;;;;;7.45;3.08;;;;;;;31.56;43.52;100423.47;5053317;28;69371;-47
2023/06/24 06:06:03;;;;;;;6.18;2.63;;;;;;;31.60;43.52;100417.34;5058818;28;65433;-44
2023/06/24 06:08:35;;;;;;;4.43;2.67;;;;;;;31.57;43.31;100398.84;5048908;28;69652;-46
2023/06/24 06:11:06;;;;;;;8.00;3.45;;;;;;;31.61;43.24;100405.44;5058973;28;66678;-45
2023/06/24 06:13:37;;;;;;;4.13;3.00;;;;;;;31.61;43.11;100412.75;5039361;28;69322;-46
2023/06/24 06:16:07;;;;;;;4.18;2.83;;;;;;;31.59;43.75;100404.84;5057308;28;65802;-48
2023/06/24 06:18:38;;;;;;;2.83;2.58;;;;;;;31.69;43.77;100406.13;5056943;28;70632;-44
2023/06/24 06:21:10;;;;;;;8.20;2.90;;;;;;;31.71;42.24;100409.44;5058480;28;66301;-43
2023/06/24 06:23:41;;;;;;;4.00;3.33;;;;;;;30.72;41.96;100255.63;5058538;28;70722;-42
2023/06/24 06:26:11;;;;;;;3.58;2.90;;;;;;;31.65;42.63;100400.38;5021439;28;66620;-44
2023/06/24 06:28:42;;;;;;;2.67;2.47;;;;;;;31.19;42.79;100325.28;5056015;28;70453;-41
2023/06/24 06:31:14;;;;;;;3.72;2.78;;;;;;;31.72;42.39;100405.66;5039784;28;65426;-40
2023/06/24 06:33:45;;;;;;;2.42;2.22;;;;;;;31.61;42.52;100383.72;5048184;28;69565;-43
2023/06/24 06:36:16;;;;;;;3.17;2.70;;;;;;;31.68;42.11;100393.63;5048025;28;66790;-45
2023/06/24 06:38:47;;;;;;;3.10;2.80;;;;;;;31.55;42.11;100373.03;5056346;28;70138;-43
2023/06/24 06:41:24;;;;;;;3.22;2.90;;;;;;;31.72;41.81;100394.81;5054589;28;66191;-44
2023/06/24 06:43:55;;;;;;;6.25;3.17;;;;;;;31.55;41.97;100365.72;5051033;28;70191;-45
2023/06/24 06:46:26;;;;;;;3.13;2.42;;;;;;;31.75;41.98;100399.75;5057746;28;66511;-45
2023/06/24 06:48:57;;;;;;;3.33;2.70;;;;;;;31.69;41.70;100390.69;5042705;28;69190;-41
2023/06/24 06:51:28;;;;;;;7.50;2.90;;;;;;;31.81;42.25;100377.09;5059244;28;65917;-43
2023/06/24 06:53:59;;;;;;;5.23;2.70;;;;;;;31.82;41.56;100384.19;5063250;28;69478;-44
2023/06/24 06:56:30;;;;;;;4.78;2.92;;;;;;;31.84;41.76;100376.63;5066190;28;66199;-45
2023/06/24 06:59:01;;;;;;;2.17;2.05;;;;;;;31.72;41.63;100362.28;5065823;28;68993;-44
2023/06/24 07:01:32;;;;;;;3.78;2.60;;;;;;;31.84;41.52;100373.91;5058387;28;65840;-44
2023/06/24 07:04:03;;;;;;;4.37;2.50;;;;;;;31.86;41.48;100374.50;5048809;28;70137;-45
2023/06/24 07:06:34;;;;;;;4.22;2.40;;;;;;;31.92;41.42;100372.75;5058400;28;66053;-47
2023/06/24 07:09:05;;;;;;;4.43;2.35;;;;;;;31.78;41.15;100335.00;5059056;28;70694;-43
2023/06/24 07:11:36;;;;;;;3.17;2.10;;;;;;;31.91;41.01;100361.09;5056662;28;66797;-44
2023/06/24 07:14:07;;;;;;;7.83;2.80;;;;;;;31.86;41.51;100360.94;5052762;28;70532;-47
2023/06/24 07:16:38;;;;;;;6.30;2.65;;;;;;;31.81;41.43;100348.09;5053880;28;66397;-46
2023/06/24 07:19:09;;;;;;;3.38;2.20;;;;;;;31.91;40.94;100352.09;5058533;28;70381;-41
2023/06/24 07:21:40;;;;;;;8.65;2.55;;;;;;;31.68;41.15;100318.56;5059945;28;66112;-45
2023/06/24 07:24:11;;;;;;;9.60;2.43;;;;;;;31.91;41.29;100338.53;5053273;28;69251;-48
2023/06/24 07:26:41;;;;;;;18.98;2.47;;;;;;;31.90;41.55;100339.59;5058932;28;64902;-43
2023/06/24 07:29:13;;;;;;;6.97;2.58;;;;;;;31.89;41.47;100325.19;5056327;28;69136;-47
2023/06/24 07:31:43;;;;;;;14.93;2.90;;;;;;;32.00;41.56;100342.53;5044748;28;65084;-46
2023/06/24 07:34:15;;;;;;;8.10;2.58;;;;;;;31.90;41.18;100331.44;5061506;28;69075;-46
2023/06/24 07:36:46;;;;;;;2.47;2.27;;;;;;;31.93;41.07;100325.56;5047424;28;66107;-43
2023/06/24 07:39:17;;;;;;;6.18;2.40;;;;;;;31.93;40.96;100329.13;5061738;28;69298;-47
2023/06/24 07:41:48;;;;;;;3.97;2.75;;;;;;;31.90;40.71;100323.31;5040646;28;66473;-47
2023/06/24 07:44:19;;;;;;;13.97;2.27;;;;;;;31.81;40.70;100306.59;5059201;28;71184;-43
2023/06/24 07:46:51;;;;;;;6.73;2.77;;;;;;;31.88;40.52;100323.56;5043904;28;67227;-44
2023/06/24 07:49:22;;;;;;;;;;;;;;;31.67;40.72;100327.72;5056042;28;70537;-46
2023/06/24 07:51:52;;;;;;;4.93;2.05;;;;;;;31.87;40.31;100321.91;5060398;28;66670;-43
2023/06/24 07:54:24;;;;;;;9.93;2.40;;;;;;;31.89;40.01;100330.63;5063684;28;70146;-45
2023/06/24 07:56:55;;;;;;;17.98;3.20;;;;;;;31.71;40.20;100290.13;5056490;28;66528;-45
2023/06/24 07:59:26;;;;;;;27.65;3.08;;;;;;;31.73;40.66;100293.41;5046558;28;68908;-42
2023/06/24 08:01:57;;;;;;;9.20;3.30;;;;;;;31.97;41.65;100319.44;5042750;28;66792;-47
2023/06/24 08:04:28;;;;;;;4.38;2.75;;;;;;;32.27;43.80;100353.66;5065204;28;70683;-43
2023/06/24 08:06:59;;;;;;;3.63;2.95;;;;;;;32.34;47.00;100335.31;5042941;28;66127;-44
2023/06/24 08:09:30;;;;;;;4.40;2.40;;;;;;;32.69;49.63;100361.50;5059111;28;70119;-44
2023/06/24 08:12:01;;;;;;;5.13;3.50;;;;;;;32.81;50.34;100364.97;5041013;28;66404;-46
2023/06/24 08:14:32;;;;;;;7.70;3.78;;;;;;;32.94;50.84;100364.66;5057987;28;71028;-45
2023/06/24 08:17:03;;;;;;;5.68;3.72;;;;;;;33.10;51.81;100357.59;5063882;28;66949;-44
2023/06/24 08:19:34;;;;;;;9.48;3.90;;;;;;;33.20;52.82;100356.09;5060595;28;68997;-46
2023/06/24 08:22:08;;;;;;;9.88;4.15;;;;;;;33.15;53.89;100349.53;5063060;28;43134;-45
2023/06/24 08:24:40;;;;;;;14.47;3.77;;;;;;;33.35;55.24;100351.72;5057008;28;71050;-45
2023/06/24 08:27:11;;;;;;;5.15;4.15;;;;;;;33.36;55.10;100342.47;5038207;28;66556;-45
2023/06/24 08:29:43;;;;;;;6.70;3.93;;;;;;;33.49;55.08;100348.63;5062810;28;71102;-44
2023/06/24 08:32:14;;;;;;;6.40;4.15;;;;;;;33.53;55.70;100355.25;5062120;28;66022;-45
2023/06/24 08:34:45;;;;;;;8.45;4.15;;;;;;;33.47;56.23;100339.91;5060806;28;69257;-44
2023/06/24 08:37:16;;;;;;;9.23;4.28;;;;;;;33.48;56.26;100338.84;5066318;28;66113;-43
2023/06/24 08:39:47;;;;;;;7.72;4.20;;;;;;;33.49;56.50;100337.75;5065689;28;70416;-45
2023/06/24 08:42:17;;;;;;;5.57;3.97;;;;;;;33.52;57.35;100342.72;5063512;28;65350;-45
2023/06/24 08:44:48;;;;;;;8.57;4.28;;;;;;;33.72;56.96;100358.50;5057979;28;69600;-45
2023/06/24 08:47:20;;;;;;;5.15;4.20;;;;;;;33.29;57.05;100292.94;5063419;28;65883;-42
2023/06/24 08:50:08;;;;;;;4.80;4.00;;;;;;;33.16;59.14;100257.94;5043848;28;69971;-44
2023/06/24 08:52:52;;;;;;;9.32;4.82;;;;;;;33.61;60.88;100330.34;5063590;28;65449;-47
2023/06/24 08:55:23;;;;;;;12.38;5.40;;;;;;;33.57;61.67;100335.47;5058691;28;70027;-48
2023/06/24 08:57:54;;;;;;;;;;;;;;;33.37;63.14;100357.72;5043937;28;66542;-44
2023/06/24 09:00:26;;;;;;;5.32;4.80;;;;;;;33.53;63.18;100355.25;5059431;28;70381;-48
2023/06/24 09:02:58;;;;;;;8.70;5.20;;;;;;;33.37;63.21;100333.25;5056107;28;66577;-45
2023/06/24 09:05:29;;;;;;;11.23;5.78;;;;;;;33.49;63.54;100364.94;5056456;28;70153;-45
2023/06/24 09:07:59;;;;;;;8.88;5.38;;;;;;;32.85;63.94;100260.19;5061173;28;65632;-45
2023/06/24 09:10:36;;;;;;;7.95;6.28;;;;;;;33.48;63.66;100371.47;5032964;28;70214;-45
2023/06/24 09:13:07;;;;;;;8.90;6.25;;;;;;;33.48;63.90;100379.63;5054732;28;65774;-45
2023/06/24 09:15:39;;;;;;;6.93;6.00;;;;;;;33.34;64.21;100363.66;5056540;28;70449;-44
2023/06/24 09:18:11;;;;;;;9.98;5.78;;;;;;;33.36;64.44;100356.06;5056501;28;66487;-45
2023/06/24 09:20:45;;;;;;;7.38;6.03;;;;;;;33.43;64.64;100364.03;5060052;28;69919;-46
2023/06/24 09:23:17;;;;;;;9.75;6.82;;;;;;;32.83;64.78;100266.94;5057309;28;66132;-45
2023/06/24 09:25:57;;;;;;;8.15;6.55;;;;;;;33.43;64.71;100374.91;5058157;28;70520;-46
2023/06/24 09:28:29;;;;;;;9.02;7.43;;;;;;;33.44;65.75;100367.63;5056932;28;66954;-45
2023/06/24 09:31:12;;;;;;;10.10;7.15;;;;;;;33.12;65.45;100322.81;5063478;28;70070;-44
2023/06/24 09:33:48;;;;;;;14.73;7.60;;;;;;;33.44;66.13;100360.28;5054643;28;66280;-45
2023/06/24 09:36:19;;;;;;;11.73;7.50;;;;;;;33.44;66.07;100357.56;5040874;28;69233;-44
2023/06/24 09:38:50;;;;;;;7.50;6.63;;;;;;;33.41;66.07;100351.81;5058500;28;67540;-44
2023/06/24 09:41:21;;;;;;;11.07;6.83;;;;;;;33.40;66.31;100341.97;5056390;28;70775;-46
2023/06/24 09:43:52;;;;;;;17.37;7.47;;;;;;;33.28;66.16;100318.44;5057414;28;66681;-44
2023/06/24 09:46:23;;;;;;;12.93;6.77;;;;;;;33.44;66.05;100334.97;5057457;28;70972;-45
2023/06/24 09:48:54;;;;;;;13.10;6.63;;;;;;;33.46;66.33;100332.81;5062021;28;65334;-49
2023/06/24 09:51:27;;;;;;;13.23;6.50;;;;;;;33.46;66.41;100321.94;5057713;28;69198;-48
2023/06/24 09:53:57;;;;;;;12.27;6.82;;;;;;;33.42;66.16;100307.22;5058074;28;66447;-49
2023/06/24 09:56:29;;;;;;;9.83;6.33;;;;;;;33.43;66.10;100306.13;5058081;28;71234;-47
2023/06/24 09:59:00;;;;;;;11.90;6.95;;;;;;;33.40;66.84;100296.59;5055937;28;66157;-49
2023/06/24 10:01:32;;;;;;;11.40;7.40;;;;;;;33.43;66.55;100311.56;5056003;28;70109;-48
2023/06/24 10:04:04;;;;;;;18.50;6.55;;;;;;;33.38;66.55;100326.75;5056898;28;66391;-47
2023/06/24 10:06:36;;;;;;;10.73;7.40;;;;;;;33.32;66.29;100322.31;5036468;28;70017;-51
2023/06/24 10:09:08;;;;;;;8.85;6.32;;;;;;;33.46;66.29;100344.53;5058430;28;66066;-49
2023/06/24 10:11:40;;;;;;;7.40;6.70;;;;;;;33.31;66.07;100325.28;5044482;28;69895;-48
2023/06/24 10:14:11;;;;;;;10.68;6.05;;;;;;;33.37;64.43;100330.53;5038664;28;65395;-52
2023/06/24 10:16:43;;;;;;;6.75;6.07;;;;;;;33.60;64.29;100407.59;5059909;28;68959;-50
2023/06/24 10:19:23;;;;;;;7.22;5.55;;;;;;;33.07;64.30;100346.38;5054972;28;66171;-49
2023/06/24 10:21:58;;;;;;;6.50;5.78;;;;;;;33.44;63.46;100417.38;5062664;28;72029;-50
2023/06/24 10:24:31;;;;;;;8.95;5.60;;;;;;;33.06;62.97;100361.06;5055853;28;65958;-46
2023/06/24 10:27:08;;;;;;;6.55;5.80;;;;;;;33.36;63.62;100383.25;5046079;28;70039;-48
2023/06/24 10:29:39;;;;;;;5.88;5.38;;;;;;;33.67;63.38;100413.66;5039132;28;65689;-49
2023/06/24 10:32:10;;;;;;;;;;;;;;;33.50;64.34;100426.44;5052380;28;69952;-49
2023/06/24 10:34:44;;;;;;;7.05;6.43;;;;;;;33.75;62.97;100407.78;5051335;28;66496;-48
2023/06/24 10:37:20;;;;;;;5.63;5.13;;;;;;;33.18;62.83;100307.41;5056373;28;70415;-47
2023/06/24 10:39:51;;;;;;;11.27;6.10;;;;;;;33.80;63.00;100410.56;5058883;28;65753;-50
2023/06/24 10:42:46;;;;;;;8.43;6.32;;;;;;;33.70;63.44;100413.16;5055862;28;69998;-49
2023/06/24 10:45:19;;;;;;;7.18;6.57;;;;;;;33.81;62.35;100406.75;5057970;28;66007;-48
2023/06/24 10:47:56;;;;;;;8.23;6.90;;;;;;;32.77;62.67;100233.44;5055265;28;70134;-49
2023/06/24 10:50:27;;;;;;;6.50;6.05;;;;;;;33.67;62.55;100372.84;5059342;28;65833;-50
2023/06/24 10:53:01;;;;;;;6.30;5.72;;;;;;;33.80;62.53;100391.53;5053916;28;70025;-49
2023/06/24 10:55:33;;;;;;;13.18;6.45;;;;;;;33.85;62.70;100395.38;5044194;28;66219;-48
2023/06/24 10:58:11;;;;;;;6.68;6.05;;;;;;;33.85;62.49;100403.53;5054842;28;69416;-49
2023/06/24 11:00:44;;;;;;;7.90;6.10;;;;;;;33.26;62.69;100304.28;5058154;28;66215;-50
2023/06/24 11:03:17;;;;;;;8.52;6.55;;;;;;;33.86;62.44;100402.47;5060942;28;69388;-49
2023/06/24 11:05:49;;;;;;;8.45;6.78;;;;;;;33.80;62.19;100394.25;5057118;28;66363;-49
2023/06/24 11:08:21;;;;;;;10.13;6.75;;;;;;;33.73;62.45;100354.69;5060642;28;70395;-48
2023/06/24 11:10:52;;;;;;;8.68;6.78;;;;;;;33.80;62.60;100377.94;5065280;28;65402;-50
2023/06/24 11:13:23;;;;;;;8.40;6.28;;;;;;;33.47;62.61;100334.47;5065200;28;70111;-48
2023/06/24 11:16:01;;;;;;;11.02;7.68;;;;;;;33.32;62.55;100314.16;5064015;28;65303;-53
2023/06/24 11:18:38;;;;;;;7.78;7.18;;;;;;;33.65;62.24;100364.13;5064468;28;69981;-50
2023/06/24 11:21:09;;;;;;;8.60;7.70;;;;;;;33.74;62.43;100378.94;5059057;28;66380;-50
2023/06/24 11:23:41;;;;;;;7.70;7.00;;;;;;;33.65;63.07;100391.31;5062081;28;69992;-49
2023/06/24 11:26:14;;;;;;;14.25;7.85;;;;;;;33.77;62.80;100405.63;5060100;28;66380;-50
2023/06/24 11:28:49;;;;;;;20.05;8.68;;;;;;;32.57;63.41;100224.97;5061389;28;70011;-49
2023/06/24 11:31:27;;;;;;;13.77;8.98;;;;;;;33.07;63.40;100316.50;5043122;28;66282;-48
2023/06/24 11:33:58;;;;;;;9.23;8.25;;;;;;;33.71;63.26;100442.00;5062989;28;70483;-48
2023/06/24 11:36:30;;;;;;;15.98;9.93;;;;;;;33.57;65.30;100443.41;5064805;28;65497;-48
2023/06/24 11:39:01;;;;;;;25.08;10.00;;;;;;;33.59;66.47;100458.41;5069594;28;70028;-47
2023/06/24 11:41:32;;;;;;;19.05;9.63;;;;;;;33.53;67.19;100455.88;5060860;28;65536;-48
2023/06/24 11:44:03;;;;;;;18.70;10.30;;;;;;;33.48;67.40;100455.75;5062062;28;69183;-46
2023/06/24 11:46:35;;;;;;;20.88;9.95;;;;;;;33.36;67.98;100440.34;5054538;28;66152;-46
2023/06/24 11:49:07;;;;;;;15.82;9.93;;;;;;;33.38;68.69;100456.44;5058764;28;69189;-42